Summit, SD (57266)

1:32 AM CDT on September 29, 2016 (GMT -0500)
W Browns Valley Twp | | Change Station

Elev 1089 ft 45.56 °N, 96.74 °W | Updated 18 seconds ago

Clear
Clear
44.6 °F
Feels Like 45 °F
N
0.0
Wind Variable Wind from SSE
Gusts 0.0 mph

Today
High -- | Low -- °F
--% Chance of Precip.
Yesterday
High -- | Low -- °F
Precip. -- in
Pressure 30.41 in
Visibility 10.0 miles
Clouds Clear
Windchill 45 °F
Dew Point 35 °F
Humidity 70%
Rainfall 0.00 in
Snow Depth Not available.
7:24 AM 7:11 PM
Waning Crescent, 3% visible
METAR KVVV 290612Z AUTO 00000KT 10SM CLR 08/07 A3041 RMK AO2
Pressure 30.41 in
Visibility 10.0 miles
Clouds Clear
Windchill 45 °F
Dew Point 35 °F
Humidity 70%
Rainfall 0.00 in
Snow Depth Not available.
7:24 AM 7:11 PM
Waning Crescent, 3% visible
METAR KVVV 290612Z AUTO 00000KT 10SM CLR 08/07 A3041 RMK AO2

10-Day Weather Forecast

Almanac

Astronomy

Sep. 29, 2016 Rise Set
Actual Time
Civil Twilight
Nautical Twilight
Astronomical Twilight
Moon
Length of Visible Light
Length of Day
Tomorrow will be .
, % of the Moon is Illuminated

Today's Extremes

State Highs State Lows

Community

WunderPhotos

Upload Photos

1,942,446 photos uploaded!

WunderBlog® & News

Nearby

Air Quality

  Air Quality AQ Index Pollutant
Not available.

Snow Depth

Station Depth Elevation

Earthquake Activity

City Distance Mag. Time & Date
Minimum magnitude displayed is 2.5.

Coastal Water Temperatures

Place Temperature

Stations

Nearby Weather Stations

Station Location Temp. Windchill Dew Point Humidity Wind Precip. Elev Updated Type
                   

Watches & Warnings

There are currently no watches in effect.